Time;durP1;ratioP1;P1;durP2;ratioP2;P2;SDS_P1;SDS_P2;PMS_P1;PMS_P2;Temp;Humidity;BMP_temperature;BMP_pressure;BME280_temperature;BME280_humidity;BME280_pressure;Samples;Min_cycle;Max_cycle;Signal;HPM_P1;HPM_P2
2024/02/07 00:01:44;;;;;;;0.93;0.60;;;;;;;;;;6345584;28;20023;-81
2024/02/07 00:04:45;;;;;;;1.17;0.53;;;;;;;;;;6352417;28;20023;-82
2024/02/07 00:07:45;;;;;;;2.67;0.53;;;;;;;;;;6356497;28;20043;-81
2024/02/07 00:10:46;;;;;;;1.10;0.70;;;;;;;;;;6356900;28;20032;-81
2024/02/07 00:13:46;;;;;;;0.80;0.40;;;;;;;;;;6331248;28;20043;-82
2024/02/07 00:16:46;;;;;;;0.77;0.40;;;;;;;;;;6320921;28;20518;-81
2024/02/07 00:19:50;;;;;;;0.80;0.60;;;;;;;;;;6320199;28;20357;-78
2024/02/07 00:22:50;;;;;;;4.22;0.60;;;;;;;;;;6321000;28;20456;-78
2024/02/07 00:25:51;;;;;;;1.17;0.60;;;;;;;;;;6322369;28;20016;-77
2024/02/07 00:28:51;;;;;;;0.70;0.60;;;;;;;;;;6321961;28;20024;-77
2024/02/07 00:31:51;;;;;;;0.67;0.47;;;;;;;;;;6323292;28;20031;-78
2024/02/07 00:34:51;;;;;;;0.57;0.50;;;;;;;;;;6319970;28;20021;-78
2024/02/07 00:37:52;;;;;;;0.73;0.50;;;;;;;;;;6315834;28;20035;-78
2024/02/07 00:40:52;;;;;;;1.90;0.47;;;;;;;;;;6296993;28;20023;-76
2024/02/07 00:43:53;;;;;;;0.70;0.40;;;;;;;;;;6308391;28;20530;-78
2024/02/07 00:46:53;;;;;;;1.10;0.57;;;;;;;;;;6303481;28;20031;-78
2024/02/07 00:49:54;;;;;;;0.50;0.35;;;;;;;;;;6318968;28;20024;-78
2024/02/07 00:52:54;;;;;;;0.50;0.40;;;;;;;;;;6336593;28;20032;-78
2024/02/07 00:55:54;;;;;;;0.87;0.37;;;;;;;;;;6323287;28;20012;-78
2024/02/07 00:58:54;;;;;;;0.40;0.30;;;;;;;;;;6326359;28;20027;-77
2024/02/07 01:01:54;;;;;;;0.50;0.33;;;;;;;;;;6326017;28;20024;-78
2024/02/07 01:04:55;;;;;;;0.53;0.30;;;;;;;;;;6325454;28;20020;-78
2024/02/07 01:07:55;;;;;;;0.43;0.30;;;;;;;;;;6324086;28;20434;-78
2024/02/07 01:10:55;;;;;;;4.43;0.40;;;;;;;;;;6321033;28;20027;-76
2024/02/07 01:13:56;;;;;;;0.60;0.33;;;;;;;;;;6340488;28;20138;-76
2024/02/07 01:16:56;;;;;;;0.30;0.30;;;;;;;;;;6346390;28;20099;-78
2024/02/07 01:19:57;;;;;;;0.60;0.40;;;;;;;;;;6322908;28;20035;-77
2024/02/07 01:22:57;;;;;;;1.90;0.37;;;;;;;;;;6327086;28;20110;-76
2024/02/07 01:25:59;;;;;;;0.33;0.30;;;;;;;;;;6343768;28;20051;-77
2024/02/07 01:28:59;;;;;;;0.32;0.30;;;;;;;;;;6326005;28;20040;-81
2024/02/07 01:31:59;;;;;;;1.40;0.20;;;;;;;;;;6325731;28;20019;-82
2024/02/07 01:34:59;;;;;;;0.67;0.40;;;;;;;;;;6298758;28;20021;-82
2024/02/07 01:38:07;;;;;;;0.80;0.40;;;;;;;;;;6312778;28;20134;-82
2024/02/07 01:41:08;;;;;;;1.70;0.55;;;;;;;;;;6325833;28;20056;-82
2024/02/07 01:44:08;;;;;;;1.00;0.50;;;;;;;;;;6293644;28;20426;-82
2024/02/07 01:47:14;;;;;;;0.87;0.47;;;;;;;;;;6325289;28;20083;-82
2024/02/07 01:50:14;;;;;;;1.42;0.60;;;;;;;;;;6323686;28;20077;-82
2024/02/07 01:53:14;;;;;;;1.70;0.77;;;;;;;;;;6324132;28;20381;-82
2024/02/07 01:56:16;;;;;;;1.43;0.60;;;;;;;;;;6307334;28;20027;-82
2024/02/07 01:59:16;;;;;;;0.85;0.47;;;;;;;;;;6323895;28;20035;-82
2024/02/07 02:02:17;;;;;;;0.97;0.60;;;;;;;;;;6310834;28;20032;-82
2024/02/07 02:05:18;;;;;;;0.60;0.50;;;;;;;;;;6347055;28;20024;-82
2024/02/07 02:08:18;;;;;;;0.63;0.50;;;;;;;;;;6307886;28;20535;-83
2024/02/07 02:11:22;;;;;;;1.90;0.60;;;;;;;;;;6346650;28;20020;-82
2024/02/07 02:14:22;;;;;;;1.38;0.80;;;;;;;;;;6319811;28;20140;-82
2024/02/07 02:17:23;;;;;;;0.70;0.50;;;;;;;;;;6307000;28;20037;-81
2024/02/07 02:20:23;;;;;;;1.60;0.60;;;;;;;;;;6310277;28;20032;-81
2024/02/07 02:23:43;;;;;;;0.43;0.43;;;;;;;;;;6330089;28;20384;-81
2024/02/07 02:26:55;;;;;;;1.48;0.50;;;;;;;;;;6335385;28;20035;-81
2024/02/07 02:29:58;;;;;;;1.10;0.60;;;;;;;;;;6307308;28;20468;-82
2024/02/07 02:33:08;;;;;;;1.05;0.60;;;;;;;;;;6338688;28;20035;-82
2024/02/07 02:36:08;;;;;;;0.80;0.65;;;;;;;;;;6323566;28;20032;-81
2024/02/07 02:39:10;;;;;;;0.95;0.50;;;;;;;;;;6305664;28;20429;-81
2024/02/07 02:42:11;;;;;;;1.35;0.60;;;;;;;;;;6326923;28;20032;-81
2024/02/07 02:45:11;;;;;;;0.80;0.63;;;;;;;;;;6331567;28;20028;-79
2024/02/07 02:48:12;;;;;;;1.10;0.53;;;;;;;;;;6322431;28;20043;-79
2024/02/07 02:51:12;;;;;;;1.07;0.70;;;;;;;;;;6322416;28;20059;-79
2024/02/07 02:54:12;;;;;;;0.43;0.40;;;;;;;;;;6334115;28;20019;-79
2024/02/07 02:57:13;;;;;;;3.47;0.70;;;;;;;;;;6334843;28;20434;-79
2024/02/07 03:00:14;;;;;;;1.23;0.70;;;;;;;;;;6307541;28;20024;-79
2024/02/07 03:03:16;;;;;;;0.55;0.50;;;;;;;;;;6329633;28;20082;-79
2024/02/07 03:06:28;;;;;;;0.73;0.50;;;;;;;;;;6322364;28;20453;-79
2024/02/07 03:09:30;;;;;;;0.98;0.52;;;;;;;;;;6320417;28;20034;-79
2024/02/07 03:12:31;;;;;;;3.08;0.57;;;;;;;;;;6303275;28;20052;-79
2024/02/07 03:15:32;;;;;;;0.77;0.50;;;;;;;;;;6322410;28;20021;-79
2024/02/07 03:18:34;;;;;;;2.90;0.60;;;;;;;;;;6317128;28;20134;-79
2024/02/07 03:21:34;;;;;;;0.50;0.45;;;;;;;;;;6329951;28;20016;-79
2024/02/07 03:24:35;;;;;;;1.50;0.50;;;;;;;;;;6309374;28;20051;-79
2024/02/07 03:27:35;;;;;;;1.17;0.50;;;;;;;;;;6321367;28;20031;-79
2024/02/07 03:30:36;;;;;;;3.00;0.50;;;;;;;;;;6322701;28;20024;-79
2024/02/07 03:33:36;;;;;;;2.00;0.50;;;;;;;;;;6321326;28;20022;-79
2024/02/07 03:36:37;;;;;;;1.23;0.40;;;;;;;;;;6303085;28;20036;-79
2024/02/07 03:39:37;;;;;;;1.07;0.40;;;;;;;;;;6321507;28;20464;-79
2024/02/07 03:42:38;;;;;;;0.30;0.30;;;;;;;;;;6321335;28;20028;-78
2024/02/07 03:45:38;;;;;;;1.00;0.50;;;;;;;;;;6322438;28;20101;-78
2024/02/07 03:48:38;;;;;;;0.53;0.30;;;;;;;;;;6321586;28;20769;-77
2024/02/07 03:51:39;;;;;;;0.87;0.40;;;;;;;;;;6310336;28;20430;-76
2024/02/07 03:54:51;;;;;;;0.40;0.30;;;;;;;;;;6321735;28;20024;-77
2024/02/07 03:57:51;;;;;;;0.98;0.35;;;;;;;;;;6320534;28;20070;-77
2024/02/07 04:00:52;;;;;;;1.60;0.50;;;;;;;;;;6322045;28;20024;-76
2024/02/07 04:03:52;;;;;;;1.07;0.50;;;;;;;;;;6321517;28;20020;-77
2024/02/07 04:06:53;;;;;;;0.60;0.30;;;;;;;;;;6318287;28;20038;-77
2024/02/07 04:09:53;;;;;;;1.42;0.30;;;;;;;;;;6335333;28;20039;-77
2024/02/07 05:15:34;;;;;;;0.55;0.40;;;;;;;;;;6313730;28;20024;-78
2024/02/07 05:18:34;;;;;;;0.80;0.60;;;;;;;;;;6324712;28;20435;-77
2024/02/07 05:21:35;;;;;;;1.10;0.40;;;;;;;;;;6328951;28;20024;-77
2024/02/07 05:24:37;;;;;;;1.57;0.57;;;;;;;;;;6320641;28;20016;-77
2024/02/07 05:27:38;;;;;;;2.63;0.60;;;;;;;;;;6331117;28;20028;-78
2024/02/07 05:30:39;;;;;;;0.73;0.43;;;;;;;;;;6328883;28;20039;-77
2024/02/07 05:33:39;;;;;;;;;;;;;;;;;;6306313;28;20400;-77
2024/02/07 05:36:39;;;;;;;1.08;0.40;;;;;;;;;;6325255;28;19919;-77
2024/02/07 05:39:40;;;;;;;1.47;1.13;;;;;;;;;;6323912;28;20077;-78
2024/02/07 05:42:40;;;;;;;1.40;1.10;;;;;;;;;;6322115;28;20016;-77
2024/02/07 05:45:40;;;;;;;3.20;0.90;;;;;;;;;;6324821;28;20396;-77
2024/02/07 05:48:41;;;;;;;0.90;0.63;;;;;;;;;;6326376;28;20074;-77
2024/02/07 05:51:41;;;;;;;0.90;0.60;;;;;;;;;;6323766;28;20024;-77
2024/02/07 05:54:43;;;;;;;1.30;0.47;;;;;;;;;;6324182;28;20027;-77
2024/02/07 05:57:43;;;;;;;0.40;0.30;;;;;;;;;;6328318;28;20112;-77
2024/02/07 06:00:43;;;;;;;0.57;0.27;;;;;;;;;;6324874;28;20036;-77
2024/02/07 06:03:50;;;;;;;0.80;0.40;;;;;;;;;;6347232;28;20105;-78
2024/02/07 06:06:51;;;;;;;0.85;0.30;;;;;;;;;;6326847;28;20024;-78
2024/02/07 06:09:51;;;;;;;0.93;0.27;;;;;;;;;;6321975;28;20481;-77
2024/02/07 06:12:51;;;;;;;0.20;0.20;;;;;;;;;;6312682;28;20419;-78
2024/02/07 06:15:51;;;;;;;0.50;0.30;;;;;;;;;;6299893;28;20024;-77
2024/02/07 06:18:51;;;;;;;0.53;0.40;;;;;;;;;;6277767;28;20016;-77
2024/02/07 06:21:52;;;;;;;0.90;0.30;;;;;;;;;;6286933;28;20021;-78
2024/02/07 06:24:53;;;;;;;0.77;0.30;;;;;;;;;;6283886;28;20370;-78
2024/02/07 06:27:53;;;;;;;0.83;0.40;;;;;;;;;;6279076;28;20444;-78
2024/02/07 06:30:53;;;;;;;0.30;0.30;;;;;;;;;;6289192;28;20105;-79
2024/02/07 06:33:53;;;;;;;0.40;0.20;;;;;;;;;;6278925;28;20028;-78
2024/02/07 06:36:54;;;;;;;0.73;0.50;;;;;;;;;;6275441;28;20541;-78
2024/02/07 06:39:54;;;;;;;1.37;0.93;;;;;;;;;;6271658;28;20381;-77
2024/02/07 06:42:54;;;;;;;1.77;1.10;;;;;;;;;;6282095;28;20089;-81
2024/02/07 06:45:57;;;;;;;2.43;1.00;;;;;;;;;;6274959;28;20389;-79
2024/02/07 06:48:57;;;;;;;3.13;0.70;;;;;;;;;;6263569;28;20041;-78
2024/02/07 06:51:57;;;;;;;0.67;0.50;;;;;;;;;;6284166;28;20095;-81
2024/02/07 06:54:58;;;;;;;2.50;0.40;;;;;;;;;;6274664;28;20028;-78
2024/02/07 06:57:58;;;;;;;0.27;0.27;;;;;;;;;;6281101;28;20028;-78
2024/02/07 07:00:58;;;;;;;0.23;0.23;;;;;;;;;;6289723;28;20013;-78
2024/02/07 07:03:59;;;;;;;0.30;0.30;;;;;;;;;;6272406;28;20036;-79
2024/02/07 07:07:01;;;;;;;0.77;0.30;;;;;;;;;;6287698;28;20039;-79
2024/02/07 07:10:01;;;;;;;1.05;0.28;;;;;;;;;;6270538;28;20025;-79
2024/02/07 07:13:01;;;;;;;0.60;0.30;;;;;;;;;;6292532;28;20075;-80
2024/02/07 07:16:02;;;;;;;0.30;0.20;;;;;;;;;;6271523;28;20021;-78
2024/02/07 07:19:02;;;;;;;0.80;0.40;;;;;;;;;;6292902;28;20029;-79
2024/02/07 07:22:04;;;;;;;0.57;0.30;;;;;;;;;;6293689;28;20405;-79
2024/02/07 07:25:04;;;;;;;0.33;0.33;;;;;;;;;;6288766;28;20031;-80
2024/02/07 07:28:05;;;;;;;0.43;0.30;;;;;;;;;;6295420;28;20032;-79
2024/02/07 07:31:05;;;;;;;0.23;0.23;;;;;;;;;;6298571;28;20032;-79
2024/02/07 07:34:05;;;;;;;1.17;0.30;;;;;;;;;;6285250;28;20028;-79
2024/02/07 07:37:05;;;;;;;1.00;0.40;;;;;;;;;;6284793;28;20021;-79
2024/02/07 07:40:06;;;;;;;1.07;0.37;;;;;;;;;;6298364;28;20028;-79
2024/02/07 07:43:06;;;;;;;0.63;0.30;;;;;;;;;;6291518;28;20023;-80
2024/02/07 07:46:08;;;;;;;0.73;0.30;;;;;;;;;;6299575;28;20468;-79
2024/02/07 07:49:08;;;;;;;0.80;0.40;;;;;;;;;;6293359;28;20082;-75
2024/02/07 07:52:09;;;;;;;0.57;0.20;;;;;;;;;;6285018;28;20040;-75
2024/02/07 07:55:09;;;;;;;0.77;0.40;;;;;;;;;;6279147;28;20889;-75
2024/02/07 07:58:09;;;;;;;1.40;0.40;;;;;;;;;;6293581;28;20402;-75
2024/02/07 08:01:19;;;;;;;0.50;0.33;;;;;;;;;;6288754;28;20017;-76
2024/02/07 08:04:19;;;;;;;0.60;0.30;;;;;;;;;;6284538;28;20056;-76
2024/02/07 08:07:19;;;;;;;0.33;0.30;;;;;;;;;;6306753;28;20036;-76
2024/02/07 08:10:20;;;;;;;0.30;0.30;;;;;;;;;;6282437;28;20119;-77
2024/02/07 08:13:20;;;;;;;1.00;0.40;;;;;;;;;;6300036;28;20048;-77
2024/02/07 08:16:20;;;;;;;1.33;0.30;;;;;;;;;;6288717;28;20365;-77
2024/02/07 08:19:21;;;;;;;0.57;0.30;;;;;;;;;;6280827;28;20531;-80
2024/02/07 08:22:21;;;;;;;1.17;0.60;;;;;;;;;;6285225;28;20032;-80
2024/02/07 08:25:21;;;;;;;0.83;0.60;;;;;;;;;;6288389;28;20116;-81
2024/02/07 08:28:22;;;;;;;0.97;0.50;;;;;;;;;;6283595;28;20071;-82
2024/02/07 08:31:22;;;;;;;1.13;0.50;;;;;;;;;;6301094;28;20065;-83
2024/02/07 08:34:23;;;;;;;0.83;0.40;;;;;;;;;;6304236;28;20473;-83
2024/02/07 08:37:26;;;;;;;0.53;0.27;;;;;;;;;;6288258;28;20021;-83
2024/02/07 08:40:27;;;;;;;0.20;0.20;;;;;;;;;;6288676;28;20481;-84
2024/02/07 08:43:27;;;;;;;0.60;0.30;;;;;;;;;;6305638;28;20029;-85
2024/02/07 08:46:27;;;;;;;0.17;0.17;;;;;;;;;;6305260;28;20020;-83
2024/02/07 08:49:28;;;;;;;0.33;0.30;;;;;;;;;;6298755;28;20112;-83
2024/02/07 08:52:28;;;;;;;0.27;0.27;;;;;;;;;;6297324;28;20020;-82
2024/02/07 08:55:28;;;;;;;0.23;0.20;;;;;;;;;;6306158;28;20091;-82
2024/02/07 08:58:28;;;;;;;0.30;0.30;;;;;;;;;;6305355;28;20012;-82
2024/02/07 09:01:29;;;;;;;0.60;0.30;;;;;;;;;;6304904;28;20035;-83
2024/02/07 09:04:29;;;;;;;0.20;0.20;;;;;;;;;;6304228;28;20021;-83
2024/02/07 09:07:32;;;;;;;0.60;0.20;;;;;;;;;;6305301;28;20340;-82
2024/02/07 09:10:32;;;;;;;0.15;0.15;;;;;;;;;;6310445;28;20025;-82
2024/02/07 09:13:33;;;;;;;0.10;0.10;;;;;;;;;;6298686;28;20512;-82
2024/02/07 09:16:33;;;;;;;0.20;0.20;;;;;;;;;;6304629;28;20059;-83
2024/02/07 09:19:33;;;;;;;0.50;0.30;;;;;;;;;;6280689;28;20529;-83
2024/02/07 09:22:33;;;;;;;0.20;0.20;;;;;;;;;;6278256;28;20439;-84
2024/02/07 09:25:34;;;;;;;0.47;0.30;;;;;;;;;;6289993;28;20454;-83
2024/02/07 09:28:34;;;;;;;0.30;0.30;;;;;;;;;;6294839;28;20017;-83
2024/02/07 09:31:34;;;;;;;0.30;0.20;;;;;;;;;;6297794;28;20090;-83
2024/02/07 09:34:34;;;;;;;0.30;0.20;;;;;;;;;;6294384;28;20020;-83
2024/02/07 09:37:36;;;;;;;4.43;0.60;;;;;;;;;;6300897;28;20373;-83
2024/02/07 09:40:36;;;;;;;0.63;0.30;;;;;;;;;;6302558;28;20024;-81
2024/02/07 09:43:37;;;;;;;0.30;0.23;;;;;;;;;;6300832;28;20033;-81
2024/02/07 09:46:37;;;;;;;0.20;0.20;;;;;;;;;;6296218;28;20071;-80
2024/02/07 09:49:38;;;;;;;0.17;0.10;;;;;;;;;;6300517;28;20032;-80
2024/02/07 09:52:39;;;;;;;0.30;0.30;;;;;;;;;;6290147;28;20477;-81
2024/02/07 09:55:39;;;;;;;0.17;0.17;;;;;;;;;;6302113;28;20029;-80
2024/02/07 09:58:42;;;;;;;1.27;0.27;;;;;;;;;;6301371;28;20033;-80
2024/02/07 10:01:43;;;;;;;0.17;0.17;;;;;;;;;;6299646;28;20017;-81
2024/02/07 10:04:50;;;;;;;0.50;0.20;;;;;;;;;;6298958;28;20020;-80
2024/02/07 10:07:54;;;;;;;0.35;0.20;;;;;;;;;;6278407;28;20032;-80
2024/02/07 10:10:54;;;;;;;0.35;0.20;;;;;;;;;;6294186;28;20024;-79
2024/02/07 10:13:54;;;;;;;2.50;0.40;;;;;;;;;;6290954;28;20051;-80
2024/02/07 10:16:55;;;;;;;1.07;0.30;;;;;;;;;;6294580;28;20548;-79
2024/02/07 10:19:55;;;;;;;1.47;0.30;;;;;;;;;;6284430;28;20033;-80
2024/02/07 10:22:55;;;;;;;1.23;0.30;;;;;;;;;;6298545;28;20012;-80
2024/02/07 10:25:56;;;;;;;0.80;0.30;;;;;;;;;;6292137;28;20024;-80
2024/02/07 10:29:06;;;;;;;1.00;0.30;;;;;;;;;;6300156;28;20028;-79
2024/02/07 10:32:06;;;;;;;0.38;0.20;;;;;;;;;;6299148;28;20086;-81
2024/02/07 10:35:10;;;;;;;0.20;0.20;;;;;;;;;;6298076;28;20017;-81
2024/02/07 10:38:10;;;;;;;0.30;0.30;;;;;;;;;;6298920;28;20025;-80
2024/02/07 10:41:11;;;;;;;0.47;0.30;;;;;;;;;;6298376;28;20047;-80
2024/02/07 10:44:12;;;;;;;0.30;0.20;;;;;;;;;;6290039;28;20025;-79
2024/02/07 10:47:12;;;;;;;0.50;0.20;;;;;;;;;;6289724;28;20028;-79
2024/02/07 10:50:15;;;;;;;0.40;0.30;;;;;;;;;;6290892;28;20032;-80
2024/02/07 10:53:16;;;;;;;1.27;0.40;;;;;;;;;;6299591;28;20031;-80
2024/02/07 10:56:18;;;;;;;0.23;0.23;;;;;;;;;;6293127;28;20024;-79
2024/02/07 10:59:18;;;;;;;0.63;0.40;;;;;;;;;;6296101;28;20027;-80
2024/02/07 11:02:19;;;;;;;0.40;0.33;;;;;;;;;;6282467;28;20474;-79
2024/02/07 11:05:21;;;;;;;0.55;0.40;;;;;;;;;;6273297;28;20033;-80
2024/02/07 11:08:22;;;;;;;1.02;0.40;;;;;;;;;;6278518;28;20036;-80
2024/02/07 11:11:25;;;;;;;0.40;0.40;;;;;;;;;;6285990;28;20089;-80
2024/02/07 11:14:26;;;;;;;1.10;0.30;;;;;;;;;;6294906;28;20052;-79
2024/02/07 11:17:26;;;;;;;0.70;0.30;;;;;;;;;;6288547;28;20032;-80
2024/02/07 11:20:28;;;;;;;0.20;0.20;;;;;;;;;;6276678;28;20024;-80
2024/02/07 11:23:31;;;;;;;0.93;0.30;;;;;;;;;;6298014;28;20118;-80
2024/02/07 11:26:32;;;;;;;0.47;0.40;;;;;;;;;;6280170;28;20020;-81
2024/02/07 11:29:33;;;;;;;2.73;0.50;;;;;;;;;;6290809;28;20025;-82
2024/02/07 11:32:33;;;;;;;;;;;;;;;;;;6284057;28;20036;-83
2024/02/07 11:35:35;;;;;;;0.20;0.20;;;;;;;;;;6286620;28;19908;-82
2024/02/07 11:38:36;;;;;;;0.47;0.30;;;;;;;;;;6274411;28;20029;-82
2024/02/07 11:41:40;;;;;;;0.30;0.30;;;;;;;;;;6293401;28;20021;-82
2024/02/07 11:44:55;;;;;;;0.55;0.30;;;;;;;;;;6284793;28;20114;-82
2024/02/07 11:47:55;;;;;;;0.38;0.30;;;;;;;;;;6287346;28;20569;-82
2024/02/07 11:51:04;;;;;;;0.23;0.20;;;;;;;;;;6278560;28;20033;-82
2024/02/07 11:54:05;;;;;;;0.70;0.20;;;;;;;;;;6274000;28;20386;-82
2024/02/07 11:57:08;;;;;;;0.20;0.20;;;;;;;;;;6259685;28;20059;-81
2024/02/07 12:00:14;;;;;;;0.50;0.25;;;;;;;;;;6256666;28;20032;-81
2024/02/07 12:03:15;;;;;;;0.55;0.47;;;;;;;;;;6287815;28;20056;-79
2024/02/07 12:06:15;;;;;;;1.00;0.28;;;;;;;;;;6308738;28;20038;-79
2024/02/07 12:09:15;;;;;;;0.63;0.20;;;;;;;;;;6299874;28;20048;-79
2024/02/07 12:12:16;;;;;;;0.20;0.20;;;;;;;;;;6278193;28;20063;-77
2024/02/07 12:15:16;;;;;;;0.70;0.30;;;;;;;;;;6294995;28;20021;-79
2024/02/07 12:18:16;;;;;;;0.20;0.20;;;;;;;;;;6278295;28;20020;-79
2024/02/07 12:21:17;;;;;;;0.30;0.20;;;;;;;;;;6294853;28;20021;-79
2024/02/07 12:24:18;;;;;;;0.90;0.32;;;;;;;;;;6298313;28;20036;-79
2024/02/07 12:27:18;;;;;;;0.30;0.30;;;;;;;;;;6297633;28;20477;-78
2024/02/07 12:30:19;;;;;;;0.80;0.40;;;;;;;;;;6298575;28;20024;-79
2024/02/07 12:33:19;;;;;;;0.57;0.40;;;;;;;;;;6296706;28;20112;-79
2024/02/07 12:36:20;;;;;;;0.30;0.30;;;;;;;;;;6296042;28;20020;-78
2024/02/07 12:39:21;;;;;;;;;;;;;;;;;;6299899;28;20024;-79
2024/02/07 12:42:23;;;;;;;0.30;0.30;;;;;;;;;;6299057;28;19904;-78
2024/02/07 12:45:24;;;;;;;0.38;0.30;;;;;;;;;;6297665;28;20031;-79
2024/02/07 12:48:25;;;;;;;0.63;0.33;;;;;;;;;;6311778;28;20047;-80
2024/02/07 12:51:25;;;;;;;;;;;;;;;;;;6346412;28;20019;-79
2024/02/07 12:54:26;;;;;;;0.73;0.10;;;;;;;;;;6337661;28;19999;-79
2024/02/07 12:57:26;;;;;;;1.40;0.22;;;;;;;;;;6325962;28;20389;-79
2024/02/07 13:00:27;;;;;;;0.30;0.20;;;;;;;;;;6309999;28;20032;-79
2024/02/07 13:03:27;;;;;;;0.80;0.30;;;;;;;;;;6328146;28;20092;-79
2024/02/07 13:06:27;;;;;;;0.40;0.20;;;;;;;;;;6308890;28;20040;-79
2024/02/07 13:09:28;;;;;;;2.53;0.30;;;;;;;;;;6311235;28;20020;-79
2024/02/07 13:12:28;;;;;;;0.75;0.30;;;;;;;;;;6323850;28;20074;-79
2024/02/07 13:15:28;;;;;;;0.20;0.20;;;;;;;;;;6302465;28;20017;-79
2024/02/07 13:18:29;;;;;;;0.57;0.30;;;;;;;;;;6343191;28;20069;-79
2024/02/07 13:21:29;;;;;;;0.30;0.30;;;;;;;;;;6351840;28;20015;-79
2024/02/07 13:24:29;;;;;;;0.80;0.40;;;;;;;;;;6341261;28;20020;-79
2024/02/07 13:27:29;;;;;;;0.50;0.27;;;;;;;;;;6301515;28;20094;-79
2024/02/07 13:30:30;;;;;;;1.47;0.43;;;;;;;;;;6323167;28;20042;-79
2024/02/07 13:33:30;;;;;;;0.77;0.40;;;;;;;;;;6324904;28;20028;-79
2024/02/07 13:36:30;;;;;;;0.80;0.47;;;;;;;;;;6324916;28;20062;-79
2024/02/07 13:39:31;;;;;;;0.68;0.32;;;;;;;;;;6325699;28;20024;-79
2024/02/07 13:42:31;;;;;;;0.80;0.40;;;;;;;;;;6326671;28;20035;-79
2024/02/07 13:45:31;;;;;;;1.57;0.37;;;;;;;;;;6325742;28;20028;-79
2024/02/07 13:48:32;;;;;;;0.47;0.20;;;;;;;;;;6324117;28;20131;-79
2024/02/07 13:51:32;;;;;;;0.50;0.40;;;;;;;;;;6325139;28;20115;-79
2024/02/07 13:54:33;;;;;;;0.23;0.23;;;;;;;;;;6307900;28;20035;-79
2024/02/07 13:57:34;;;;;;;1.00;0.30;;;;;;;;;;6325274;28;20122;-79
2024/02/07 14:00:34;;;;;;;0.63;0.30;;;;;;;;;;6327191;28;20480;-79
2024/02/07 14:03:34;;;;;;;0.37;0.37;;;;;;;;;;6312450;28;20028;-79
2024/02/07 14:06:34;;;;;;;0.40;0.30;;;;;;;;;;6306333;28;20473;-79
2024/02/07 14:09:35;;;;;;;2.60;0.50;;;;;;;;;;6301604;28;20036;-79
2024/02/07 14:12:35;;;;;;;0.73;0.30;;;;;;;;;;6310145;28;20074;-79
2024/02/07 14:15:35;;;;;;;6.63;0.40;;;;;;;;;;6352688;28;20019;-79
2024/02/07 14:18:36;;;;;;;0.52;0.28;;;;;;;;;;6351439;28;20015;-79
2024/02/07 14:21:36;;;;;;;0.80;0.30;;;;;;;;;;6349886;28;20024;-79
2024/02/07 14:24:37;;;;;;;4.07;1.30;;;;;;;;;;6351463;28;20103;-79
2024/02/07 14:27:37;;;;;;;1.67;0.80;;;;;;;;;;6349886;28;20081;-79
2024/02/07 14:30:37;;;;;;;0.90;0.60;;;;;;;;;;6333453;28;20023;-79
2024/02/07 14:33:37;;;;;;;0.40;0.40;;;;;;;;;;6349649;28;20011;-79
2024/02/07 14:36:38;;;;;;;0.43;0.40;;;;;;;;;;6350383;28;20024;-79
2024/02/07 14:39:38;;;;;;;0.60;0.37;;;;;;;;;;6351884;28;20035;-79
2024/02/07 14:42:38;;;;;;;0.57;0.37;;;;;;;;;;6351840;28;20012;-79
2024/02/07 14:45:38;;;;;;;0.50;0.30;;;;;;;;;;6348256;28;20012;-79
2024/02/07 14:48:39;;;;;;;0.60;0.30;;;;;;;;;;6325092;28;20431;-79
2024/02/07 14:51:39;;;;;;;0.50;0.30;;;;;;;;;;6348680;28;20105;-79
2024/02/07 14:54:39;;;;;;;0.50;0.30;;;;;;;;;;6318369;28;20028;-79
2024/02/07 14:57:39;;;;;;;0.73;0.30;;;;;;;;;;6325425;28;20023;-79
2024/02/07 15:00:40;;;;;;;0.40;0.30;;;;;;;;;;6327621;28;20054;-79
2024/02/07 15:03:40;;;;;;;0.50;0.35;;;;;;;;;;6324773;28;20020;-79
2024/02/07 15:06:41;;;;;;;1.40;0.60;;;;;;;;;;6323750;28;20028;-79
2024/02/07 15:09:41;;;;;;;0.95;0.50;;;;;;;;;;6314041;28;20543;-79
2024/02/07 15:12:42;;;;;;;1.43;0.47;;;;;;;;;;6340922;28;20062;-79
2024/02/07 15:15:43;;;;;;;0.40;0.40;;;;;;;;;;6305639;28;20052;-79
2024/02/07 15:18:43;;;;;;;0.32;0.30;;;;;;;;;;6345009;28;20450;-79
2024/02/07 15:21:43;;;;;;;0.60;0.40;;;;;;;;;;6347748;28;20020;-79
2024/02/07 15:24:43;;;;;;;0.30;0.30;;;;;;;;;;6346508;28;20538;-80
2024/02/07 15:27:43;;;;;;;0.60;0.57;;;;;;;;;;6348305;28;20038;-79
2024/02/07 15:30:44;;;;;;;3.87;2.30;;;;;;;;;;6340991;28;20024;-82
2024/02/07 15:33:44;;;;;;;2.20;1.40;;;;;;;;;;6322830;28;20046;-82
2024/02/07 15:36:44;;;;;;;0.93;0.80;;;;;;;;;;6323863;28;20118;-82
2024/02/07 15:39:45;;;;;;;0.70;0.50;;;;;;;;;;6324146;28;20026;-82
2024/02/07 15:42:45;;;;;;;1.43;0.40;;;;;;;;;;6334324;28;20500;-82
2024/02/07 15:45:45;;;;;;;0.80;0.50;;;;;;;;;;6319891;28;20028;-82
2024/02/07 15:48:45;;;;;;;0.30;0.30;;;;;;;;;;6348195;28;20461;-83
2024/02/07 15:51:46;;;;;;;1.30;0.30;;;;;;;;;;6345899;28;20027;-82
2024/02/07 15:54:47;;;;;;;0.20;0.10;;;;;;;;;;6347595;28;20035;-82
2024/02/07 15:57:47;;;;;;;0.63;0.32;;;;;;;;;;6348266;28;20023;-83
2024/02/07 16:00:48;;;;;;;0.73;0.40;;;;;;;;;;6348025;28;20109;-82
2024/02/07 16:03:48;;;;;;;0.30;0.30;;;;;;;;;;6346763;28;20020;-82
2024/02/07 16:06:48;;;;;;;0.43;0.40;;;;;;;;;;6329712;28;20012;-82
2024/02/07 16:09:48;;;;;;;0.17;0.13;;;;;;;;;;6344250;28;20040;-82
2024/02/07 16:12:49;;;;;;;0.37;0.30;;;;;;;;;;6340937;28;20063;-82
2024/02/07 16:15:49;;;;;;;2.00;0.67;;;;;;;;;;6333288;28;20016;-82
2024/02/07 16:18:49;;;;;;;0.60;0.30;;;;;;;;;;6345160;28;20099;-82
2024/02/07 16:21:49;;;;;;;0.20;0.20;;;;;;;;;;6344729;28;20020;-82
2024/02/07 16:24:57;;;;;;;0.17;0.17;;;;;;;;;;6342208;28;20053;-82
2024/02/07 16:27:57;;;;;;;0.52;0.30;;;;;;;;;;6350995;28;20034;-82
2024/02/07 16:30:57;;;;;;;0.70;0.40;;;;;;;;;;6352476;28;20016;-82
2024/02/07 16:33:57;;;;;;;0.60;0.20;;;;;;;;;;6352486;28;20020;-82
2024/02/07 16:36:58;;;;;;;0.30;0.20;;;;;;;;;;6350928;28;20054;-82
2024/02/07 16:39:58;;;;;;;0.27;0.20;;;;;;;;;;6336110;28;20015;-82
2024/02/07 16:42:59;;;;;;;0.30;0.25;;;;;;;;;;6352497;28;20016;-82
2024/02/07 16:45:59;;;;;;;0.37;0.37;;;;;;;;;;6353180;28;20055;-82
2024/02/07 16:49:03;;;;;;;0.40;0.40;;;;;;;;;;6352036;28;20464;-82
2024/02/07 16:52:03;;;;;;;0.55;0.38;;;;;;;;;;6347409;28;20039;-82
2024/02/07 16:55:03;;;;;;;0.37;0.30;;;;;;;;;;6349591;28;20097;-82
2024/02/07 16:58:06;;;;;;;0.20;0.20;;;;;;;;;;6351926;28;20031;-83
2024/02/07 17:01:06;;;;;;;1.00;0.63;;;;;;;;;;6352515;28;20490;-83
2024/02/07 17:04:06;;;;;;;1.73;1.33;;;;;;;;;;6351154;28;20028;-82
2024/02/07 17:07:06;;;;;;;0.53;0.50;;;;;;;;;;6351388;28;20123;-82
2024/02/07 17:10:07;;;;;;;0.70;0.60;;;;;;;;;;6350761;28;20102;-83
2024/02/07 17:13:07;;;;;;;0.70;0.40;;;;;;;;;;6341171;28;20047;-82
2024/02/07 17:16:07;;;;;;;0.70;0.40;;;;;;;;;;6327945;28;20077;-82
2024/02/07 17:19:08;;;;;;;0.37;0.30;;;;;;;;;;6349844;28;20486;-82
2024/02/07 17:22:08;;;;;;;0.47;0.33;;;;;;;;;;6342161;27;20473;-81
2024/02/07 17:25:08;;;;;;;0.20;0.20;;;;;;;;;;6351122;27;20120;-82
2024/02/07 17:28:09;;;;;;;0.90;0.40;;;;;;;;;;6336634;27;20453;-81
2024/02/07 17:31:09;;;;;;;0.30;0.20;;;;;;;;;;6351833;27;20015;-82
2024/02/07 17:34:09;;;;;;;0.30;0.30;;;;;;;;;;6341815;27;20039;-83
2024/02/07 17:37:09;;;;;;;0.20;0.10;;;;;;;;;;6350123;28;20039;-82
2024/02/07 17:40:10;;;;;;;0.27;0.20;;;;;;;;;;6353223;27;20031;-80
2024/02/07 17:43:11;;;;;;;0.50;0.20;;;;;;;;;;6365332;27;20043;-81
2024/02/07 17:46:12;;;;;;;0.28;0.28;;;;;;;;;;6352960;27;20027;-82
2024/02/07 17:49:12;;;;;;;0.32;0.30;;;;;;;;;;6363499;27;20114;-80
2024/02/07 17:52:12;;;;;;;1.30;0.80;;;;;;;;;;6363842;27;20048;-80
2024/02/07 17:55:12;;;;;;;2.27;1.67;;;;;;;;;;6351150;28;20108;-78
2024/02/07 17:58:13;;;;;;;1.93;1.40;;;;;;;;;;6352343;27;20055;-81
2024/02/07 18:01:14;;;;;;;1.45;1.00;;;;;;;;;;6338475;27;20080;-78
2024/02/07 18:04:14;;;;;;;1.00;0.80;;;;;;;;;;6349844;28;20089;-80
2024/02/07 18:07:14;;;;;;;0.50;0.40;;;;;;;;;;6349608;28;20035;-79
2024/02/07 18:10:15;;;;;;;0.50;0.50;;;;;;;;;;6353539;27;20020;-79
2024/02/07 18:13:15;;;;;;;0.27;0.27;;;;;;;;;;6348957;28;20051;-78
2024/02/07 18:16:16;;;;;;;0.30;0.30;;;;;;;;;;6349946;28;20023;-80
2024/02/07 18:19:16;;;;;;;;;;;;;;;;;;6348786;27;20058;-78
2024/02/07 18:22:17;;;;;;;0.70;0.30;;;;;;;;;;6315067;28;19923;-78
2024/02/07 18:25:17;;;;;;;0.20;0.20;;;;;;;;;;6324493;28;20024;-80
2024/02/07 18:28:17;;;;;;;0.20;0.20;;;;;;;;;;6326396;28;20377;-80
2024/02/07 18:31:17;;;;;;;0.20;0.20;;;;;;;;;;6352643;27;20372;-80
2024/02/07 18:34:18;;;;;;;0.17;0.10;;;;;;;;;;6349949;28;20479;-81
2024/02/07 18:37:18;;;;;;;0.70;0.53;;;;;;;;;;6350031;28;20030;-81
2024/02/07 18:40:18;;;;;;;2.07;1.37;;;;;;;;;;6349849;27;20429;-81
2024/02/07 18:43:19;;;;;;;1.00;0.97;;;;;;;;;;6339054;28;20364;-79
2024/02/07 18:46:23;;;;;;;0.80;0.70;;;;;;;;;;6323214;28;20069;-83
2024/02/07 18:49:23;;;;;;;0.30;0.30;;;;;;;;;;6340395;27;20124;-82
2024/02/07 18:52:23;;;;;;;0.60;0.33;;;;;;;;;;6359057;27;20421;-82
2024/02/07 18:55:24;;;;;;;0.50;0.40;;;;;;;;;;6350287;28;20053;-82
2024/02/07 18:58:25;;;;;;;0.30;0.30;;;;;;;;;;6350457;28;20511;-88
2024/02/07 19:01:26;;;;;;;0.20;0.20;;;;;;;;;;6351283;28;20018;-84
2024/02/07 19:04:28;;;;;;;0.27;0.20;;;;;;;;;;6347142;28;20449;-86
2024/02/07 19:07:28;;;;;;;0.30;0.30;;;;;;;;;;6316994;28;20027;-84
2024/02/07 19:10:28;;;;;;;0.20;0.20;;;;;;;;;;6335155;28;20028;-83